sensor_id;sensor_type;location;lat;lon;timestamp;pressure;altitude;pressure_sealevel;temperature;humidity
11339;BME280;5724;42.684;23.252;2023-10-19T00:00:35;94430.72;;;6.75;100.00
11339;BME280;5724;42.684;23.252;2023-10-19T00:03:02;94417.63;;;6.77;100.00
11339;BME280;5724;42.684;23.252;2023-10-19T00:05:29;94413.84;;;6.69;100.00
11339;BME280;5724;42.684;23.252;2023-10-19T00:07:56;94422.63;;;6.87;100.00
11339;BME280;5724;42.684;23.252;2023-10-19T00:10:26;94410.31;;;6.89;100.00
11339;BME280;5724;42.684;23.252;2023-10-19T00:12:58;94405.84;;;6.85;100.00
11339;BME280;5724;42.684;23.252;2023-10-19T00:15:30;94413.22;;;6.84;100.00
11339;BME280;5724;42.684;23.252;2023-10-19T00:17:57;94397.75;;;6.64;100.00
11339;BME280;5724;42.684;23.252;2023-10-19T00:20:31;94399.19;;;6.82;100.00
11339;BME280;5724;42.684;23.252;2023-10-19T00:23:15;94398.72;;;6.80;100.00
11339;BME280;5724;42.684;23.252;2023-10-19T00:25:46;94392.38;;;6.76;100.00
11339;BME280;5724;42.684;23.252;2023-10-19T00:28:17;94395.75;;;6.73;100.00
11339;BME280;5724;42.684;23.252;2023-10-19T00:30:43;94391.25;;;6.77;100.00
11339;BME280;5724;42.684;23.252;2023-10-19T00:33:11;94392.63;;;6.83;100.00
11339;BME280;5724;42.684;23.252;2023-10-19T00:35:47;94388.13;;;6.87;100.00
11339;BME280;5724;42.684;23.252;2023-10-19T00:38:24;94385.91;;;7.02;100.00
11339;BME280;5724;42.684;23.252;2023-10-19T00:40:53;94387.09;;;6.92;100.00
11339;BME280;5724;42.684;23.252;2023-10-19T00:43:27;94381.41;;;6.85;100.00
11339;BME280;5724;42.684;23.252;2023-10-19T00:45:54;94386.63;;;6.78;100.00
11339;BME280;5724;42.684;23.252;2023-10-19T00:48:19;94382.53;;;6.84;100.00
11339;BME280;5724;42.684;23.252;2023-10-19T00:50:49;94364.38;;;6.64;100.00
11339;BME280;5724;42.684;23.252;2023-10-19T00:53:19;94393.75;;;6.82;100.00
11339;BME280;5724;42.684;23.252;2023-10-19T00:55:45;94382.44;;;6.80;100.00
11339;BME280;5724;42.684;23.252;2023-10-19T00:58:11;94387.06;;;6.80;100.00
11339;BME280;5724;42.684;23.252;2023-10-19T01:00:43;94386.81;;;6.73;100.00
11339;BME280;5724;42.684;23.252;2023-10-19T01:03:11;94387.41;;;6.78;100.00
11339;BME280;5724;42.684;23.252;2023-10-19T01:05:39;94383.09;;;6.77;100.00
11339;BME280;5724;42.684;23.252;2023-10-19T01:08:05;94386.88;;;6.43;100.00
11339;BME280;5724;42.684;23.252;2023-10-19T01:10:51;94388.75;;;6.51;100.00
11339;BME280;5724;42.684;23.252;2023-10-19T01:13:18;94395.09;;;6.35;100.00
11339;BME280;5724;42.684;23.252;2023-10-19T01:15:52;94397.34;;;6.32;100.00
11339;BME280;5724;42.684;23.252;2023-10-19T01:18:18;94393.38;;;6.09;100.00
11339;BME280;5724;42.684;23.252;2023-10-19T01:20:44;94390.00;;;6.12;100.00
11339;BME280;5724;42.684;23.252;2023-10-19T01:23:20;94382.59;;;6.21;100.00
11339;BME280;5724;42.684;23.252;2023-10-19T01:25:58;94386.88;;;6.22;100.00
11339;BME280;5724;42.684;23.252;2023-10-19T01:28:32;94392.81;;;5.86;100.00
11339;BME280;5724;42.684;23.252;2023-10-19T01:33:45;94390.06;;;5.65;100.00
11339;BME280;5724;42.684;23.252;2023-10-19T01:36:11;94397.88;;;5.67;100.00
11339;BME280;5724;42.684;23.252;2023-10-19T01:38:41;94388.09;;;5.45;100.00
11339;BME280;5724;42.684;23.252;2023-10-19T01:41:08;94385.66;;;5.52;100.00
11339;BME280;5724;42.684;23.252;2023-10-19T01:43:41;94389.47;;;5.60;100.00
11339;BME280;5724;42.684;23.252;2023-10-19T01:46:08;94399.19;;;5.61;100.00
11339;BME280;5724;42.684;23.252;2023-10-19T01:48:54;94399.59;;;5.71;100.00
11339;BME280;5724;42.684;23.252;2023-10-19T01:51:24;94399.31;;;5.64;100.00
11339;BME280;5724;42.684;23.252;2023-10-19T01:53:52;94399.97;;;5.61;100.00
11339;BME280;5724;42.684;23.252;2023-10-19T01:56:18;94385.94;;;5.59;100.00
11339;BME280;5724;42.684;23.252;2023-10-19T01:58:48;94390.84;;;5.66;100.00
11339;BME280;5724;42.684;23.252;2023-10-19T02:01:18;94390.81;;;5.74;100.00
11339;BME280;5724;42.684;23.252;2023-10-19T02:03:58;94388.56;;;5.77;100.00
11339;BME280;5724;42.684;23.252;2023-10-19T02:06:29;94388.09;;;5.74;100.00
11339;BME280;5724;42.684;23.252;2023-10-19T02:09:11;94386.53;;;5.73;100.00
11339;BME280;5724;42.684;23.252;2023-10-19T02:11:42;94391.94;;;5.73;100.00
11339;BME280;5724;42.684;23.252;2023-10-19T02:14:10;94391.81;;;5.70;100.00
11339;BME280;5724;42.684;23.252;2023-10-19T02:16:42;94402.50;;;5.66;100.00
11339;BME280;5724;42.684;23.252;2023-10-19T02:19:18;94402.34;;;5.63;100.00
11339;BME280;5724;42.684;23.252;2023-10-19T02:21:46;94403.47;;;5.62;100.00
11339;BME280;5724;42.684;23.252;2023-10-19T02:24:13;94393.28;;;5.59;100.00
11339;BME280;5724;42.684;23.252;2023-10-19T02:26:43;94391.59;;;5.75;100.00
11339;BME280;5724;42.684;23.252;2023-10-19T02:29:09;94388.22;;;5.78;100.00
11339;BME280;5724;42.684;23.252;2023-10-19T02:31:38;94397.34;;;5.73;100.00
11339;BME280;5724;42.684;23.252;2023-10-19T02:34:06;94392.31;;;5.63;100.00
11339;BME280;5724;42.684;23.252;2023-10-19T02:36:33;94397.41;;;5.65;100.00
11339;BME280;5724;42.684;23.252;2023-10-19T02:39:03;94386.16;;;5.84;100.00
11339;BME280;5724;42.684;23.252;2023-10-19T02:41:35;94383.31;;;5.80;100.00
11339;BME280;5724;42.684;23.252;2023-10-19T02:44:03;94386.16;;;5.84;100.00
11339;BME280;5724;42.684;23.252;2023-10-19T02:46:44;94391.56;;;5.84;100.00
11339;BME280;5724;42.684;23.252;2023-10-19T02:49:12;94387.13;;;5.79;100.00
11339;BME280;5724;42.684;23.252;2023-10-19T02:51:41;94382.03;;;5.78;100.00
11339;BME280;5724;42.684;23.252;2023-10-19T02:54:14;94386.84;;;5.72;100.00
11339;BME280;5724;42.684;23.252;2023-10-19T02:56:49;94390.56;;;5.59;100.00
11339;BME280;5724;42.684;23.252;2023-10-19T02:59:19;94380.84;;;5.58;100.00
11339;BME280;5724;42.684;23.252;2023-10-19T03:01:58;94390.84;;;5.66;100.00
11339;BME280;5724;42.684;23.252;2023-10-19T03:04:39;94385.44;;;5.66;100.00
11339;BME280;5724;42.684;23.252;2023-10-19T03:07:07;94387.19;;;5.70;100.00
11339;BME280;5724;42.684;23.252;2023-10-19T03:09:33;94383.34;;;5.71;100.00
11339;BME280;5724;42.684;23.252;2023-10-19T03:12:01;94379.50;;;5.72;100.00
11339;BME280;5724;42.684;23.252;2023-10-19T03:14:35;94372.84;;;5.70;100.00
11339;BME280;5724;42.684;23.252;2023-10-19T03:17:00;94377.75;;;5.68;100.00
11339;BME280;5724;42.684;23.252;2023-10-19T03:19:26;94379.72;;;5.59;100.00
11339;BME280;5724;42.684;23.252;2023-10-19T03:21:53;94376.97;;;5.67;100.00
11339;BME280;5724;42.684;23.252;2023-10-19T03:24:20;94382.69;;;5.74;100.00
11339;BME280;5724;42.684;23.252;2023-10-19T03:26:52;94370.78;;;5.58;100.00
11339;BME280;5724;42.684;23.252;2023-10-19T03:29:19;94379.84;;;5.71;100.00
11339;BME280;5724;42.684;23.252;2023-10-19T03:31:56;94389.25;;;5.65;100.00
11339;BME280;5724;42.684;23.252;2023-10-19T03:34:21;94379.84;;;5.71;100.00
11339;BME280;5724;42.684;23.252;2023-10-19T03:36:49;94378.06;;;5.75;100.00
11339;BME280;5724;42.684;23.252;2023-10-19T03:39:16;94377.91;;;5.71;100.00
11339;BME280;5724;42.684;23.252;2023-10-19T03:41:43;94375.09;;;5.59;100.00
11339;BME280;5724;42.684;23.252;2023-10-19T03:44:13;94363.63;;;5.62;100.00
11339;BME280;5724;42.684;23.252;2023-10-19T03:46:49;94362.00;;;5.70;100.00
11339;BME280;5724;42.684;23.252;2023-10-19T03:49:21;94364.09;;;5.64;100.00
11339;BME280;5724;42.684;23.252;2023-10-19T03:51:47;94355.81;;;5.61;100.00
11339;BME280;5724;42.684;23.252;2023-10-19T03:54:46;94354.53;;;5.58;100.00
11339;BME280;5724;42.684;23.252;2023-10-19T03:57:14;94315.75;;;5.37;100.00
11339;BME280;5724;42.684;23.252;2023-10-19T03:59:55;94352.16;;;5.57;100.00
11339;BME280;5724;42.684;23.252;2023-10-19T04:02:27;94358.84;;;5.59;100.00
11339;BME280;5724;42.684;23.252;2023-10-19T04:05:00;94362.16;;;5.65;100.00
11339;BME280;5724;42.684;23.252;2023-10-19T04:07:28;94360.06;;;5.70;100.00
11339;BME280;5724;42.684;23.252;2023-10-19T04:09:56;94346.41;;;5.58;100.00
11339;BME280;5724;42.684;23.252;2023-10-19T04:12:24;94354.31;;;5.72;100.00
11339;BME280;5724;42.684;23.252;2023-10-19T04:14:50;94362.78;;;5.70;100.00
11339;BME280;5724;42.684;23.252;2023-10-19T04:17:15;94348.56;;;5.44;100.00
11339;BME280;5724;42.684;23.252;2023-10-19T04:19:47;94359.19;;;5.49;100.00
11339;BME280;5724;42.684;23.252;2023-10-19T04:22:20;94364.16;;;5.47;100.00
11339;BME280;5724;42.684;23.252;2023-10-19T04:24:50;94351.44;;;5.39;100.00
11339;BME280;5724;42.684;23.252;2023-10-19T04:27:16;94358.13;;;5.41;100.00
11339;BME280;5724;42.684;23.252;2023-10-19T04:29:42;94362.56;;;5.46;100.00
11339;BME280;5724;42.684;23.252;2023-10-19T04:32:09;94363.38;;;5.46;100.00
11339;BME280;5724;42.684;23.252;2023-10-19T04:34:40;94358.41;;;5.49;100.00
11339;BME280;5724;42.684;23.252;2023-10-19T04:37:05;94283.53;;;5.14;100.00
11339;BME280;5724;42.684;23.252;2023-10-19T04:39:32;94346.59;;;5.53;100.00
11339;BME280;5724;42.684;23.252;2023-10-19T04:41:59;94352.72;;;5.41;100.00
11339;BME280;5724;42.684;23.252;2023-10-19T04:44:25;94344.69;;;5.54;100.00
11339;BME280;5724;42.684;23.252;2023-10-19T04:46:50;94306.91;;;5.19;100.00
11339;BME280;5724;42.684;23.252;2023-10-19T04:49:16;94332.25;;;5.53;100.00
11339;BME280;5724;42.684;23.252;2023-10-19T04:51:42;94338.41;;;5.32;100.00
11339;BME280;5724;42.684;23.252;2023-10-19T04:54:09;94345.25;;;5.30;100.00
11339;BME280;5724;42.684;23.252;2023-10-19T04:56:34;94332.38;;;5.27;100.00
11339;BME280;5724;42.684;23.252;2023-10-19T04:59:02;94338.25;;;5.29;100.00
11339;BME280;5724;42.684;23.252;2023-10-19T05:01:27;94343.19;;;5.35;100.00
11339;BME280;5724;42.684;23.252;2023-10-19T05:03:53;94337.59;;;5.40;100.00
11339;BME280;5724;42.684;23.252;2023-10-19T05:06:18;94341.56;;;5.43;100.00
11339;BME280;5724;42.684;23.252;2023-10-19T05:08:44;94344.72;;;5.45;100.00
11339;BME280;5724;42.684;23.252;2023-10-19T05:11:12;94345.06;;;5.43;100.00
11339;BME280;5724;42.684;23.252;2023-10-19T05:13:38;94345.84;;;5.44;100.00
11339;BME280;5724;42.684;23.252;2023-10-19T05:16:05;94343.72;;;5.50;100.00
11339;BME280;5724;42.684;23.252;2023-10-19T05:18:31;94343.69;;;5.58;100.00
11339;BME280;5724;42.684;23.252;2023-10-19T05:20:56;94348.34;;;5.79;100.00
11339;BME280;5724;42.684;23.252;2023-10-19T05:23:23;94335.97;;;5.69;100.00
11339;BME280;5724;42.684;23.252;2023-10-19T05:25:50;94347.91;;;5.77;100.00
11339;BME280;5724;42.684;23.252;2023-10-19T05:28:17;94345.00;;;5.82;100.00
11339;BME280;5724;42.684;23.252;2023-10-19T05:30:44;94354.50;;;5.96;100.00
11339;BME280;5724;42.684;23.252;2023-10-19T05:33:09;94359.34;;;5.91;100.00
11339;BME280;5724;42.684;23.252;2023-10-19T05:35:35;94357.22;;;5.96;100.00
11339;BME280;5724;42.684;23.252;2023-10-19T05:38:06;94369.94;;;6.05;100.00
11339;BME280;5724;42.684;23.252;2023-10-19T05:40:31;94366.31;;;6.00;100.00
11339;BME280;5724;42.684;23.252;2023-10-19T05:42:57;94372.31;;;6.06;100.00
11339;BME280;5724;42.684;23.252;2023-10-19T05:45:23;94373.00;;;6.24;100.00
11339;BME280;5724;42.684;23.252;2023-10-19T05:47:49;94362.06;;;6.32;100.00
11339;BME280;5724;42.684;23.252;2023-10-19T05:50:15;94364.13;;;6.36;100.00
11339;BME280;5724;42.684;23.252;2023-10-19T05:52:42;94362.81;;;6.42;100.00
11339;BME280;5724;42.684;23.252;2023-10-19T05:55:09;94372.28;;;6.56;100.00
11339;BME280;5724;42.684;23.252;2023-10-19T05:57:36;94369.00;;;6.63;100.00
11339;BME280;5724;42.684;23.252;2023-10-19T06:00:04;94371.53;;;6.68;100.00
11339;BME280;5724;42.684;23.252;2023-10-19T06:02:30;94351.00;;;6.58;100.00
11339;BME280;5724;42.684;23.252;2023-10-19T06:04:56;94371.56;;;6.80;100.00
11339;BME280;5724;42.684;23.252;2023-10-19T06:07:22;94381.75;;;6.83;100.00
11339;BME280;5724;42.684;23.252;2023-10-19T06:09:50;94369.22;;;6.91;100.00
11339;BME280;5724;42.684;23.252;2023-10-19T06:12:15;94361.41;;;6.89;100.00
11339;BME280;5724;42.684;23.252;2023-10-19T06:14:41;94362.88;;;6.87;100.00
11339;BME280;5724;42.684;23.252;2023-10-19T06:17:06;94367.09;;;6.97;100.00
11339;BME280;5724;42.684;23.252;2023-10-19T06:19:32;94370.34;;;6.90;100.00
11339;BME280;5724;42.684;23.252;2023-10-19T06:21:57;94372.06;;;6.95;100.00
11339;BME280;5724;42.684;23.252;2023-10-19T06:24:24;94367.66;;;7.02;100.00
11339;BME280;5724;42.684;23.252;2023-10-19T06:26:49;94202.19;;;5.94;100.00
11339;BME280;5724;42.684;23.252;2023-10-19T06:29:14;94365.09;;;7.06;100.00
11339;BME280;5724;42.684;23.252;2023-10-19T06:31:40;94360.69;;;7.13;100.00
11339;BME280;5724;42.684;23.252;2023-10-19T06:34:06;94357.75;;;7.18;100.00
11339;BME280;5724;42.684;23.252;2023-10-19T06:36:31;94362.94;;;7.11;100.00
11339;BME280;5724;42.684;23.252;2023-10-19T06:38:57;94364.78;;;7.20;100.00
11339;BME280;5724;42.684;23.252;2023-10-19T06:41:22;94376.69;;;7.27;100.00
11339;BME280;5724;42.684;23.252;2023-10-19T06:43:49;94381.88;;;7.32;100.00
11339;BME280;5724;42.684;23.252;2023-10-19T06:46:15;94376.94;;;7.46;100.00
11339;BME280;5724;42.684;23.252;2023-10-19T06:48:41;94380.56;;;7.51;100.00
11339;BME280;5724;42.684;23.252;2023-10-19T06:51:07;94372.66;;;7.58;100.00
11339;BME280;5724;42.684;23.252;2023-10-19T06:53:33;94367.22;;;7.82;100.00
11339;BME280;5724;42.684;23.252;2023-10-19T06:55:59;94359.63;;;7.88;100.00
11339;BME280;5724;42.684;23.252;2023-10-19T06:58:25;94360.41;;;7.88;100.00
11339;BME280;5724;42.684;23.252;2023-10-19T07:00:52;94340.00;;;7.94;100.00
11339;BME280;5724;42.684;23.252;2023-10-19T07:03:33;94348.59;;;8.21;100.00
11339;BME280;5724;42.684;23.252;2023-10-19T07:05:59;94356.94;;;8.28;100.00
11339;BME280;5724;42.684;23.252;2023-10-19T07:08:25;94368.09;;;8.35;100.00
11339;BME280;5724;42.684;23.252;2023-10-19T07:10:55;94367.63;;;8.45;100.00
11339;BME280;5724;42.684;23.252;2023-10-19T07:13:20;94375.88;;;8.49;100.00
11339;BME280;5724;42.684;23.252;2023-10-19T07:15:48;94369.63;;;8.60;100.00
11339;BME280;5724;42.684;23.252;2023-10-19T07:18:14;94365.16;;;8.40;100.00
11339;BME280;5724;42.684;23.252;2023-10-19T07:20:41;94372.16;;;8.41;100.00
11339;BME280;5724;42.684;23.252;2023-10-19T07:23:08;94355.69;;;8.50;100.00
11339;BME280;5724;42.684;23.252;2023-10-19T07:25:50;94358.91;;;8.68;100.00
11339;BME280;5724;42.684;23.252;2023-10-19T07:28:20;94365.91;;;8.81;100.00
11339;BME280;5724;42.684;23.252;2023-10-19T07:30:47;94375.47;;;9.03;100.00
11339;BME280;5724;42.684;23.252;2023-10-19T07:33:15;94374.53;;;9.11;100.00
11339;BME280;5724;42.684;23.252;2023-10-19T07:35:44;94377.44;;;9.18;100.00
11339;BME280;5724;42.684;23.252;2023-10-19T07:38:13;94372.44;;;9.20;100.00
11339;BME280;5724;42.684;23.252;2023-10-19T07:40:39;94380.16;;;9.18;98.98
11339;BME280;5724;42.684;23.252;2023-10-19T07:43:04;94378.00;;;9.39;98.86
11339;BME280;5724;42.684;23.252;2023-10-19T07:45:30;94387.50;;;9.30;98.61
11339;BME280;5724;42.684;23.252;2023-10-19T07:47:57;94385.91;;;9.29;98.80
11339;BME280;5724;42.684;23.252;2023-10-19T07:50:32;94385.22;;;9.48;99.14
11339;BME280;5724;42.684;23.252;2023-10-19T07:52:58;94392.88;;;9.42;98.18
11339;BME280;5724;42.684;23.252;2023-10-19T07:55:23;94388.56;;;9.72;98.55
11339;BME280;5724;42.684;23.252;2023-10-19T07:57:50;94390.63;;;9.75;96.34
11339;BME280;5724;42.684;23.252;2023-10-19T08:00:16;94380.56;;;9.48;95.71
11339;BME280;5724;42.684;23.252;2023-10-19T08:02:43;94373.78;;;8.98;97.94
11339;BME280;5724;42.684;23.252;2023-10-19T08:05:16;94379.56;;;9.25;98.29
11339;BME280;5724;42.684;23.252;2023-10-19T08:07:45;94376.94;;;9.44;97.35
11339;BME280;5724;42.684;23.252;2023-10-19T08:10:14;94370.28;;;9.89;95.68
11339;BME280;5724;42.684;23.252;2023-10-19T08:12:41;94369.81;;;10.02;94.89
11339;BME280;5724;42.684;23.252;2023-10-19T08:15:11;94379.63;;;10.39;93.42
11339;BME280;5724;42.684;23.252;2023-10-19T08:17:41;94357.66;;;10.51;93.27
11339;BME280;5724;42.684;23.252;2023-10-19T08:20:08;94367.03;;;10.88;91.23
11339;BME280;5724;42.684;23.252;2023-10-19T08:22:50;94363.13;;;10.89;92.02
11339;BME280;5724;42.684;23.252;2023-10-19T08:25:16;94375.09;;;11.20;91.16
11339;BME280;5724;42.684;23.252;2023-10-19T08:27:45;94378.88;;;11.35;89.88
11339;BME280;5724;42.684;23.252;2023-10-19T08:30:12;94373.34;;;11.31;88.89
11339;BME280;5724;42.684;23.252;2023-10-19T08:32:41;94369.75;;;11.08;90.74
11339;BME280;5724;42.684;23.252;2023-10-19T08:35:08;94364.56;;;11.22;90.42
11339;BME280;5724;42.684;23.252;2023-10-19T08:37:34;94375.06;;;11.62;89.97
11339;BME280;5724;42.684;23.252;2023-10-19T08:40:00;94376.06;;;11.96;87.74
11339;BME280;5724;42.684;23.252;2023-10-19T08:42:25;94367.34;;;12.14;86.45
11339;BME280;5724;42.684;23.252;2023-10-19T08:44:51;94369.06;;;12.25;84.80
11339;BME280;5724;42.684;23.252;2023-10-19T08:47:17;94372.72;;;12.33;84.47
11339;BME280;5724;42.684;23.252;2023-10-19T08:49:42;94377.56;;;12.43;84.57
11339;BME280;5724;42.684;23.252;2023-10-19T08:52:08;94369.84;;;12.52;84.77
11339;BME280;5724;42.684;23.252;2023-10-19T08:54:34;94384.19;;;12.69;84.06
11339;BME280;5724;42.684;23.252;2023-10-19T08:57:00;94347.84;;;12.45;81.53
11339;BME280;5724;42.684;23.252;2023-10-19T08:59:26;94348.41;;;12.58;80.44
11339;BME280;5724;42.684;23.252;2023-10-19T09:02:02;94378.16;;;12.86;80.70
11339;BME280;5724;42.684;23.252;2023-10-19T09:04:29;94368.22;;;13.04;79.29
11339;BME280;5724;42.684;23.252;2023-10-19T09:06:55;94366.66;;;13.07;78.52
11339;BME280;5724;42.684;23.252;2023-10-19T09:09:20;94349.59;;;13.21;77.73
11339;BME280;5724;42.684;23.252;2023-10-19T09:11:47;94352.91;;;13.37;77.50
11339;BME280;5724;42.684;23.252;2023-10-19T09:14:14;94348.25;;;13.41;76.83
11339;BME280;5724;42.684;23.252;2023-10-19T09:16:56;94330.06;;;13.66;76.52
11339;BME280;5724;42.684;23.252;2023-10-19T09:19:45;94333.69;;;13.78;74.75
11339;BME280;5724;42.684;23.252;2023-10-19T09:22:13;94337.91;;;13.64;76.03
11339;BME280;5724;42.684;23.252;2023-10-19T09:24:48;94321.91;;;13.73;74.15
11339;BME280;5724;42.684;23.252;2023-10-19T09:27:17;94335.84;;;13.54;76.47
11339;BME280;5724;42.684;23.252;2023-10-19T09:29:43;94331.97;;;14.07;74.79
11339;BME280;5724;42.684;23.252;2023-10-19T09:32:09;94325.28;;;14.00;74.96
11339;BME280;5724;42.684;23.252;2023-10-19T09:34:35;94332.47;;;14.19;72.09
11339;BME280;5724;42.684;23.252;2023-10-19T09:37:02;94317.13;;;14.18;71.57
11339;BME280;5724;42.684;23.252;2023-10-19T09:39:31;94315.22;;;14.26;71.01
11339;BME280;5724;42.684;23.252;2023-10-19T09:42:06;94316.19;;;14.48;71.22
11339;BME280;5724;42.684;23.252;2023-10-19T09:44:42;94308.56;;;14.96;70.01
11339;BME280;5724;42.684;23.252;2023-10-19T09:47:13;94309.47;;;15.36;69.01
11339;BME280;5724;42.684;23.252;2023-10-19T09:49:43;94309.91;;;15.45;66.85
11339;BME280;5724;42.684;23.252;2023-10-19T09:52:10;94304.72;;;15.18;67.75
11339;BME280;5724;42.684;23.252;2023-10-19T09:54:48;94313.81;;;15.40;65.89
11339;BME280;5724;42.684;23.252;2023-10-19T09:57:21;94315.72;;;15.22;66.12
11339;BME280;5724;42.684;23.252;2023-10-19T09:59:51;94309.66;;;14.77;68.26
11339;BME280;5724;42.684;23.252;2023-10-19T10:02:20;94303.38;;;14.80;68.83
11339;BME280;5724;42.684;23.252;2023-10-19T10:04:47;94286.13;;;14.91;68.76
11339;BME280;5724;42.684;23.252;2023-10-19T10:07:14;94283.72;;;14.75;68.02
11339;BME280;5724;42.684;23.252;2023-10-19T10:09:42;94290.53;;;15.09;67.81
11339;BME280;5724;42.684;23.252;2023-10-19T10:12:19;94283.06;;;15.10;65.97
11339;BME280;5724;42.684;23.252;2023-10-19T10:15:02;94291.00;;;15.36;66.31
11339;BME280;5724;42.684;23.252;2023-10-19T10:17:35;94285.94;;;15.67;64.84
11339;BME280;5724;42.684;23.252;2023-10-19T10:22:41;94273.72;;;16.11;64.14
11339;BME280;5724;42.684;23.252;2023-10-19T10:25:07;94262.31;;;16.16;63.59
11339;BME280;5724;42.684;23.252;2023-10-19T10:27:36;94265.03;;;16.37;62.86
11339;BME280;5724;42.684;23.252;2023-10-19T10:30:04;94262.31;;;16.16;63.34
11339;BME280;5724;42.684;23.252;2023-10-19T10:32:49;94254.78;;;16.30;62.35
11339;BME280;5724;42.684;23.252;2023-10-19T10:38:09;94242.22;;;16.01;63.55
11339;BME280;5724;42.684;23.252;2023-10-19T10:40:49;94229.63;;;16.14;62.21
11339;BME280;5724;42.684;23.252;2023-10-19T10:43:15;94230.78;;;16.27;62.45
11339;BME280;5724;42.684;23.252;2023-10-19T10:45:41;94221.25;;;16.53;62.58
11339;BME280;5724;42.684;23.252;2023-10-19T10:48:17;94221.25;;;16.50;62.56
11339;BME280;5724;42.684;23.252;2023-10-19T10:50:44;94211.72;;;16.76;61.24
11339;BME280;5724;42.684;23.252;2023-10-19T10:53:11;94208.97;;;16.76;61.45
11339;BME280;5724;42.684;23.252;2023-10-19T10:55:37;94190.06;;;16.74;62.69
11339;BME280;5724;42.684;23.252;2023-10-19T10:58:04;94191.22;;;16.80;61.88
11339;BME280;5724;42.684;23.252;2023-10-19T11:00:30;94202.53;;;17.00;61.44
11339;BME280;5724;42.684;23.252;2023-10-19T11:03:07;94174.47;;;17.12;60.79
11339;BME280;5724;42.684;23.252;2023-10-19T11:05:33;94171.19;;;17.32;60.28
11339;BME280;5724;42.684;23.252;2023-10-19T11:10:31;94177.22;;;17.64;60.01
11339;BME280;5724;42.684;23.252;2023-10-19T11:13:08;94177.31;;;17.57;60.27
11339;BME280;5724;42.684;23.252;2023-10-19T11:15:38;94168.16;;;17.12;61.06
11339;BME280;5724;42.684;23.252;2023-10-19T11:18:07;94167.59;;;17.38;60.41
11339;BME280;5724;42.684;23.252;2023-10-19T11:20:32;94164.03;;;17.38;60.72
11339;BME280;5724;42.684;23.252;2023-10-19T11:22:58;94152.34;;;17.64;60.78
11339;BME280;5724;42.684;23.252;2023-10-19T11:25:28;94146.25;;;17.87;59.56
11339;BME280;5724;42.684;23.252;2023-10-19T11:28:01;94156.75;;;18.03;58.74
11339;BME280;5724;42.684;23.252;2023-10-19T11:30:28;94146.88;;;18.06;59.42
11339;BME280;5724;42.684;23.252;2023-10-19T11:32:55;94148.91;;;17.98;59.23
11339;BME280;5724;42.684;23.252;2023-10-19T11:35:29;94144.50;;;18.04;59.07
11339;BME280;5724;42.684;23.252;2023-10-19T11:37:58;94145.13;;;18.19;57.96
11339;BME280;5724;42.684;23.252;2023-10-19T11:40:25;94138.75;;;17.88;59.13
11339;BME280;5724;42.684;23.252;2023-10-19T11:42:51;94130.31;;;18.02;59.09
11339;BME280;5724;42.684;23.252;2023-10-19T11:45:18;94131.19;;;17.95;59.64
11339;BME280;5724;42.684;23.252;2023-10-19T11:47:44;94138.41;;;18.20;58.79
11339;BME280;5724;42.684;23.252;2023-10-19T11:50:13;94127.50;;;18.40;58.00
11339;BME280;5724;42.684;23.252;2023-10-19T11:52:44;94124.75;;;18.70;56.78
11339;BME280;5724;42.684;23.252;2023-10-19T11:55:11;94120.41;;;18.73;56.13
11339;BME280;5724;42.684;23.252;2023-10-19T11:57:39;94119.19;;;18.74;56.53
11339;BME280;5724;42.684;23.252;2023-10-19T12:00:06;94112.75;;;18.80;56.42
11339;BME280;5724;42.684;23.252;2023-10-19T12:02:35;94119.00;;;18.88;56.43
11339;BME280;5724;42.684;23.252;2023-10-19T12:05:05;94115.06;;;18.85;55.84
11339;BME280;5724;42.684;23.252;2023-10-19T12:07:38;94114.44;;;18.74;56.29
11339;BME280;5724;42.684;23.252;2023-10-19T12:10:08;94108.75;;;18.85;56.06
11339;BME280;5724;42.684;23.252;2023-10-19T12:12:35;94102.38;;;18.88;56.28
11339;BME280;5724;42.684;23.252;2023-10-19T12:15:01;94088.91;;;18.90;56.42
11339;BME280;5724;42.684;23.252;2023-10-19T12:17:28;94093.59;;;18.66;56.73
11339;BME280;5724;42.684;23.252;2023-10-19T12:19:55;94092.19;;;18.81;55.78
11339;BME280;5724;42.684;23.252;2023-10-19T12:22:21;94094.44;;;18.90;55.80
11339;BME280;5724;42.684;23.252;2023-10-19T12:24:46;94096.13;;;18.84;56.43
11339;BME280;5724;42.684;23.252;2023-10-19T12:27:13;94088.63;;;18.81;56.01
11339;BME280;5724;42.684;23.252;2023-10-19T12:29:39;94081.69;;;18.96;55.81
11339;BME280;5724;42.684;23.252;2023-10-19T12:32:06;94085.50;;;19.06;55.19
11339;BME280;5724;42.684;23.252;2023-10-19T12:34:31;94078.03;;;19.03;55.70
11339;BME280;5724;42.684;23.252;2023-10-19T12:36:58;94080.94;;;19.19;55.40
11339;BME280;5724;42.684;23.252;2023-10-19T12:39:24;94076.72;;;19.11;54.61
11339;BME280;5724;42.684;23.252;2023-10-19T12:42:10;94073.97;;;19.11;54.39
11339;BME280;5724;42.684;23.252;2023-10-19T12:44:36;94073.47;;;19.16;55.08
11339;BME280;5724;42.684;23.252;2023-10-19T12:47:08;94079.72;;;19.20;54.83
11339;BME280;5724;42.684;23.252;2023-10-19T12:49:36;94070.88;;;18.78;54.72
11339;BME280;5724;42.684;23.252;2023-10-19T12:52:02;94062.75;;;18.95;55.00
11339;BME280;5724;42.684;23.252;2023-10-19T12:54:33;94064.84;;;19.10;55.20
11339;BME280;5724;42.684;23.252;2023-10-19T12:57:00;94068.72;;;19.16;54.88
11339;BME280;5724;42.684;23.252;2023-10-19T12:59:26;94069.09;;;19.42;54.34
11339;BME280;5724;42.684;23.252;2023-10-19T13:01:51;94065.13;;;19.43;53.26
11339;BME280;5724;42.684;23.252;2023-10-19T13:04:20;94049.38;;;19.36;54.06
11339;BME280;5724;42.684;23.252;2023-10-19T13:06:50;94051.50;;;19.52;53.76
11339;BME280;5724;42.684;23.252;2023-10-19T13:09:15;94049.09;;;19.54;53.71
11339;BME280;5724;42.684;23.252;2023-10-19T13:11:49;94058.31;;;19.71;52.71
11339;BME280;5724;42.684;23.252;2023-10-19T13:14:17;94062.53;;;19.79;52.77
11339;BME280;5724;42.684;23.252;2023-10-19T13:16:43;94053.16;;;19.93;53.13
11339;BME280;5724;42.684;23.252;2023-10-19T13:19:08;94043.63;;;20.14;52.27